sensor_id;sensor_type;location;lat;lon;timestamp;pressure;altitude;pressure_sealevel;temperature;humidity
75460;BME280;64039;53.060;9.342;2023-01-09T00:01:11;99210.47;;;4.18;100.00
75460;BME280;64039;53.060;9.342;2023-01-09T00:03:37;99202.31;;;3.98;100.00
75460;BME280;64039;53.060;9.342;2023-01-09T00:06:03;99199.03;;;4.05;100.00
75460;BME280;64039;53.060;9.342;2023-01-09T00:08:28;99204.75;;;3.90;100.00
75460;BME280;64039;53.060;9.342;2023-01-09T00:10:53;99196.38;;;4.00;100.00
75460;BME280;64039;53.060;9.342;2023-01-09T00:13:19;99199.94;;;4.07;100.00
75460;BME280;64039;53.060;9.342;2023-01-09T00:15:44;99194.59;;;3.98;100.00
75460;BME280;64039;53.060;9.342;2023-01-09T00:18:10;99194.34;;;3.85;100.00
75460;BME280;64039;53.060;9.342;2023-01-09T00:20:35;99185.63;;;3.78;100.00
75460;BME280;64039;53.060;9.342;2023-01-09T00:23:01;99194.28;;;3.82;100.00
75460;BME280;64039;53.060;9.342;2023-01-09T00:25:26;99196.00;;;3.82;100.00
75460;BME280;64039;53.060;9.342;2023-01-09T00:27:52;99191.50;;;3.73;100.00
75460;BME280;64039;53.060;9.342;2023-01-09T00:30:17;99189.75;;;3.72;100.00
75460;BME280;64039;53.060;9.342;2023-01-09T00:32:43;99179.56;;;3.78;100.00
75460;BME280;64039;53.060;9.342;2023-01-09T00:35:13;99176.13;;;3.76;100.00
75460;BME280;64039;53.060;9.342;2023-01-09T00:37:39;99166.81;;;3.83;100.00
75460;BME280;64039;53.060;9.342;2023-01-09T00:40:05;99169.25;;;3.76;100.00
75460;BME280;64039;53.060;9.342;2023-01-09T00:42:31;99161.56;;;3.78;100.00
75460;BME280;64039;53.060;9.342;2023-01-09T00:45:04;99159.50;;;4.01;100.00
75460;BME280;64039;53.060;9.342;2023-01-09T00:47:35;99156.69;;;3.90;100.00
75460;BME280;64039;53.060;9.342;2023-01-09T00:50:05;99151.66;;;3.95;100.00
75460;BME280;64039;53.060;9.342;2023-01-09T00:52:33;99149.38;;;4.11;100.00
75460;BME280;64039;53.060;9.342;2023-01-09T00:55:03;99144.94;;;4.03;100.00
75460;BME280;64039;53.060;9.342;2023-01-09T00:57:29;99149.47;;;4.15;100.00
75460;BME280;64039;53.060;9.342;2023-01-09T00:59:56;99140.72;;;4.05;100.00
75460;BME280;64039;53.060;9.342;2023-01-09T01:02:22;99145.13;;;4.13;100.00
75460;BME280;64039;53.060;9.342;2023-01-09T01:04:47;99142.06;;;4.31;100.00
75460;BME280;64039;53.060;9.342;2023-01-09T01:07:31;99143.78;;;4.32;100.00
75460;BME280;64039;53.060;9.342;2023-01-09T01:10:08;99145.75;;;4.45;100.00
75460;BME280;64039;53.060;9.342;2023-01-09T01:12:35;99131.81;;;4.34;100.00
75460;BME280;64039;53.060;9.342;2023-01-09T01:15:01;99138.63;;;4.32;100.00
75460;BME280;64039;53.060;9.342;2023-01-09T01:17:26;99141.22;;;4.33;100.00
75460;BME280;64039;53.060;9.342;2023-01-09T01:19:52;99137.00;;;4.35;100.00
75460;BME280;64039;53.060;9.342;2023-01-09T01:22:17;99135.13;;;4.28;100.00
75460;BME280;64039;53.060;9.342;2023-01-09T01:24:43;99142.31;;;4.45;100.00
75460;BME280;64039;53.060;9.342;2023-01-09T01:27:08;99142.47;;;4.52;100.00
75460;BME280;64039;53.060;9.342;2023-01-09T01:29:34;99134.47;;;4.38;100.00
75460;BME280;64039;53.060;9.342;2023-01-09T01:31:59;99132.09;;;4.48;100.00
75460;BME280;64039;53.060;9.342;2023-01-09T01:34:25;99128.03;;;4.62;100.00
75460;BME280;64039;53.060;9.342;2023-01-09T01:36:52;99133.09;;;4.56;100.00
75460;BME280;64039;53.060;9.342;2023-01-09T01:39:17;99126.38;;;4.66;100.00
75460;BME280;64039;53.060;9.342;2023-01-09T01:41:43;99131.69;;;4.74;100.00
75460;BME280;64039;53.060;9.342;2023-01-09T01:47:13;99131.88;;;4.86;100.00
75460;BME280;64039;53.060;9.342;2023-01-09T01:49:39;99128.63;;;4.96;100.00
75460;BME280;64039;53.060;9.342;2023-01-09T01:52:05;99122.81;;;5.10;100.00
75460;BME280;64039;53.060;9.342;2023-01-09T01:54:31;99110.81;;;5.10;100.00
75460;BME280;64039;53.060;9.342;2023-01-09T01:56:59;99112.66;;;5.19;100.00
75460;BME280;64039;53.060;9.342;2023-01-09T01:59:32;99110.75;;;5.07;100.00
75460;BME280;64039;53.060;9.342;2023-01-09T02:02:00;99112.63;;;5.17;100.00
75460;BME280;64039;53.060;9.342;2023-01-09T02:04:27;99105.81;;;5.23;100.00
75460;BME280;64039;53.060;9.342;2023-01-09T02:06:55;99110.28;;;5.33;100.00
75460;BME280;64039;53.060;9.342;2023-01-09T02:09:21;99108.53;;;5.32;100.00
75460;BME280;64039;53.060;9.342;2023-01-09T02:11:53;99108.53;;;5.30;100.00
75460;BME280;64039;53.060;9.342;2023-01-09T02:14:22;99119.78;;;5.35;100.00
75460;BME280;64039;53.060;9.342;2023-01-09T02:17:22;99108.72;;;5.44;100.00
75460;BME280;64039;53.060;9.342;2023-01-09T02:30:56;99110.69;;;5.64;100.00
75460;BME280;64039;53.060;9.342;2023-01-09T02:36:03;99115.06;;;5.68;100.00
75460;BME280;64039;53.060;9.342;2023-01-09T02:41:42;99116.81;;;5.69;100.00
75460;BME280;64039;53.060;9.342;2023-01-09T02:44:27;99109.09;;;5.72;100.00
75460;BME280;64039;53.060;9.342;2023-01-09T02:49:34;99100.41;;;5.65;100.00
75460;BME280;64039;53.060;9.342;2023-01-09T02:57:13;99102.25;;;5.76;100.00
75460;BME280;64039;53.060;9.342;2023-01-09T03:05:35;99094.44;;;5.71;100.00
75460;BME280;64039;53.060;9.342;2023-01-09T03:08:08;99091.22;;;5.88;100.00
75460;BME280;64039;53.060;9.342;2023-01-09T03:10:50;99086.81;;;5.77;100.00
75460;BME280;64039;53.060;9.342;2023-01-09T03:13:18;99087.66;;;5.78;100.00
75460;BME280;64039;53.060;9.342;2023-01-09T03:15:47;99090.22;;;5.75;100.00
75460;BME280;64039;53.060;9.342;2023-01-09T03:18:16;99091.97;;;5.80;100.00
75460;BME280;64039;53.060;9.342;2023-01-09T03:20:43;99083.44;;;5.83;100.00
75460;BME280;64039;53.060;9.342;2023-01-09T03:23:09;99073.97;;;5.83;100.00
75460;BME280;64039;53.060;9.342;2023-01-09T03:25:34;99082.72;;;5.98;100.00
75460;BME280;64039;53.060;9.342;2023-01-09T03:28:02;99072.41;;;5.98;100.00
75460;BME280;64039;53.060;9.342;2023-01-09T03:30:29;99071.56;;;5.97;100.00
75460;BME280;64039;53.060;9.342;2023-01-09T03:32:56;99076.81;;;6.04;100.00
75460;BME280;64039;53.060;9.342;2023-01-09T03:35:22;99069.09;;;6.07;100.00
75460;BME280;64039;53.060;9.342;2023-01-09T03:37:48;99067.19;;;5.93;100.00
75460;BME280;64039;53.060;9.342;2023-01-09T03:40:13;99076.81;;;6.02;100.00
75460;BME280;64039;53.060;9.342;2023-01-09T03:42:39;99067.31;;;6.03;100.00
75460;BME280;64039;53.060;9.342;2023-01-09T03:45:04;99076.75;;;6.01;100.00
75460;BME280;64039;53.060;9.342;2023-01-09T03:47:30;99069.81;;;5.98;100.00
75460;BME280;64039;53.060;9.342;2023-01-09T03:49:56;99067.22;;;5.98;100.00
75460;BME280;64039;53.060;9.342;2023-01-09T03:52:21;99069.91;;;6.03;100.00
75460;BME280;64039;53.060;9.342;2023-01-09T03:54:47;99067.22;;;5.95;100.00
75460;BME280;64039;53.060;9.342;2023-01-09T03:57:12;99069.06;;;6.02;100.00
75460;BME280;64039;53.060;9.342;2023-01-09T03:59:37;99073.34;;;6.02;100.00
75460;BME280;64039;53.060;9.342;2023-01-09T04:02:04;99064.72;;;6.01;100.00
75460;BME280;64039;53.060;9.342;2023-01-09T04:04:30;99066.44;;;5.99;100.00
75460;BME280;64039;53.060;9.342;2023-01-09T04:06:56;99070.97;;;6.19;100.00
75460;BME280;64039;53.060;9.342;2023-01-09T04:09:21;99076.00;;;6.08;100.00
75460;BME280;64039;53.060;9.342;2023-01-09T04:11:46;99073.28;;;5.98;100.00
75460;BME280;64039;53.060;9.342;2023-01-09T04:14:13;99072.34;;;5.93;100.00
75460;BME280;64039;53.060;9.342;2023-01-09T04:16:38;99071.59;;;5.99;100.00
75460;BME280;64039;53.060;9.342;2023-01-09T04:19:04;99076.75;;;6.01;100.00
75460;BME280;64039;53.060;9.342;2023-01-09T04:21:29;99068.22;;;6.05;100.00
75460;BME280;64039;53.060;9.342;2023-01-09T04:23:54;99069.81;;;5.98;100.00
75460;BME280;64039;53.060;9.342;2023-01-09T04:26:20;99063.91;;;6.05;100.00
75460;BME280;64039;53.060;9.342;2023-01-09T04:28:46;99069.19;;;6.14;100.00
75460;BME280;64039;53.060;9.342;2023-01-09T04:31:11;99066.56;;;6.11;100.00
75460;BME280;64039;53.060;9.342;2023-01-09T04:33:37;99069.16;;;6.11;100.00
75460;BME280;64039;53.060;9.342;2023-01-09T04:36:03;99064.84;;;6.13;100.00
75460;BME280;64039;53.060;9.342;2023-01-09T04:38:28;99064.84;;;6.13;100.00
75460;BME280;64039;53.060;9.342;2023-01-09T04:40:54;99059.69;;;6.10;100.00
75460;BME280;64039;53.060;9.342;2023-01-09T04:43:19;99067.44;;;6.13;100.00
75460;BME280;64039;53.060;9.342;2023-01-09T04:45:45;99064.09;;;6.21;100.00
75460;BME280;64039;53.060;9.342;2023-01-09T04:48:10;99061.47;;;6.19;100.00
75460;BME280;64039;53.060;9.342;2023-01-09T04:50:35;99074.38;;;6.16;100.00
75460;BME280;64039;53.060;9.342;2023-01-09T04:53:01;99074.34;;;6.14;100.00
75460;BME280;64039;53.060;9.342;2023-01-09T04:55:26;99077.88;;;6.20;100.00
75460;BME280;64039;53.060;9.342;2023-01-09T04:57:52;99084.81;;;6.27;100.00
75460;BME280;64039;53.060;9.342;2023-01-09T05:00:17;99079.59;;;6.21;100.00
75460;BME280;64039;53.060;9.342;2023-01-09T05:02:43;99086.41;;;6.17;100.00
75460;BME280;64039;53.060;9.342;2023-01-09T05:05:09;99082.88;;;6.07;100.00
75460;BME280;64039;53.060;9.342;2023-01-09T05:07:35;99081.19;;;6.08;100.00
75460;BME280;64039;53.060;9.342;2023-01-09T05:10:02;99093.28;;;6.13;100.00
75460;BME280;64039;53.060;9.342;2023-01-09T05:12:28;99095.81;;;6.09;100.00
75460;BME280;64039;53.060;9.342;2023-01-09T05:14:53;99101.75;;;6.00;100.00
75460;BME280;64039;53.060;9.342;2023-01-09T05:17:19;99097.41;;;5.99;100.00
75460;BME280;64039;53.060;9.342;2023-01-09T05:19:44;99111.34;;;6.13;100.00
75460;BME280;64039;53.060;9.342;2023-01-09T05:22:11;99113.88;;;6.09;100.00
75460;BME280;64039;53.060;9.342;2023-01-09T05:24:36;99109.66;;;6.12;100.00
75460;BME280;64039;53.060;9.342;2023-01-09T05:27:02;99105.22;;;6.02;100.00
75460;BME280;64039;53.060;9.342;2023-01-09T05:29:28;99105.28;;;6.07;100.00
75460;BME280;64039;53.060;9.342;2023-01-09T05:31:53;99103.53;;;6.07;100.00
75460;BME280;64039;53.060;9.342;2023-01-09T05:34:19;99100.91;;;6.03;100.00
75460;BME280;64039;53.060;9.342;2023-01-09T05:36:45;99109.59;;;6.09;100.00
75460;BME280;64039;53.060;9.342;2023-01-09T05:39:10;99116.28;;;5.95;100.00
75460;BME280;64039;53.060;9.342;2023-01-09T05:41:36;99110.41;;;6.05;100.00
75460;BME280;64039;53.060;9.342;2023-01-09T05:44:01;99119.88;;;6.06;100.00
75460;BME280;64039;53.060;9.342;2023-01-09T05:46:29;99114.75;;;6.09;100.00
75460;BME280;64039;53.060;9.342;2023-01-09T05:48:55;99117.31;;;6.06;100.00
75460;BME280;64039;53.060;9.342;2023-01-09T05:51:21;99132.69;;;5.98;100.00
75460;BME280;64039;53.060;9.342;2023-01-09T05:53:46;99137.91;;;6.02;100.00
75460;BME280;64039;53.060;9.342;2023-01-09T05:56:12;99135.97;;;5.87;100.00
75460;BME280;64039;53.060;9.342;2023-01-09T05:58:38;99141.31;;;5.99;100.00
75460;BME280;64039;53.060;9.342;2023-01-09T06:01:03;99140.47;;;6.02;100.00
75460;BME280;64039;53.060;9.342;2023-01-09T06:03:29;99138.75;;;6.01;100.00
75460;BME280;64039;53.060;9.342;2023-01-09T06:05:54;99140.38;;;5.95;100.00
75460;BME280;64039;53.060;9.342;2023-01-09T06:08:20;99137.75;;;5.91;100.00
75460;BME280;64039;53.060;9.342;2023-01-09T06:10:46;99141.22;;;5.91;100.00
75460;BME280;64039;53.060;9.342;2023-01-09T06:13:12;99149.88;;;5.95;100.00
75460;BME280;64039;53.060;9.342;2023-01-09T06:15:38;99144.72;;;5.96;100.00
75460;BME280;64039;53.060;9.342;2023-01-09T06:18:03;99159.19;;;5.85;100.00
75460;BME280;64039;53.060;9.342;2023-01-09T06:20:29;99158.41;;;5.92;100.00
75460;BME280;64039;53.060;9.342;2023-01-09T06:22:55;99170.63;;;6.01;100.00
75460;BME280;64039;53.060;9.342;2023-01-09T06:25:20;99168.84;;;5.98;100.00
75460;BME280;64039;53.060;9.342;2023-01-09T06:27:46;99167.22;;;6.04;100.00
75460;BME280;64039;53.060;9.342;2023-01-09T06:30:11;99173.09;;;5.95;100.00
75460;BME280;64039;53.060;9.342;2023-01-09T06:32:37;99171.22;;;5.83;100.00
75460;BME280;64039;53.060;9.342;2023-01-09T06:35:03;99173.81;;;5.83;100.00
75460;BME280;64039;53.060;9.342;2023-01-09T06:37:28;99186.59;;;5.75;100.00
75460;BME280;64039;53.060;9.342;2023-01-09T06:39:54;99178.94;;;5.81;100.00
75460;BME280;64039;53.060;9.342;2023-01-09T06:42:19;99185.78;;;5.79;100.00
75460;BME280;64039;53.060;9.342;2023-01-09T06:44:46;99183.81;;;5.63;100.00
75460;BME280;64039;53.060;9.342;2023-01-09T06:47:11;99178.66;;;5.61;100.00
75460;BME280;64039;53.060;9.342;2023-01-09T06:49:37;99188.22;;;5.69;100.00
75460;BME280;64039;53.060;9.342;2023-01-09T06:52:02;99185.41;;;5.53;100.00
75460;BME280;64039;53.060;9.342;2023-01-09T06:54:30;99194.97;;;5.60;100.00
75460;BME280;64039;53.060;9.342;2023-01-09T06:56:55;99200.81;;;5.48;100.00
75460;BME280;64039;53.060;9.342;2023-01-09T06:59:20;99205.19;;;5.53;100.00
75460;BME280;64039;53.060;9.342;2023-01-09T07:01:46;99209.28;;;5.40;100.00
75460;BME280;64039;53.060;9.342;2023-01-09T07:04:11;99215.16;;;5.31;100.00
75460;BME280;64039;53.060;9.342;2023-01-09T07:06:37;99219.31;;;5.21;100.00
75460;BME280;64039;53.060;9.342;2023-01-09T07:09:03;99222.63;;;5.15;100.00
75460;BME280;64039;53.060;9.342;2023-01-09T07:11:30;99223.47;;;5.14;100.00
75460;BME280;64039;53.060;9.342;2023-01-09T07:13:56;99236.19;;;5.05;100.00
75460;BME280;64039;53.060;9.342;2023-01-09T07:16:21;99239.84;;;5.15;100.00
75460;BME280;64039;53.060;9.342;2023-01-09T07:18:47;99232.94;;;5.15;100.00
75460;BME280;64039;53.060;9.342;2023-01-09T07:21:12;99240.72;;;5.17;100.00
75460;BME280;64039;53.060;9.342;2023-01-09T07:23:38;99239.78;;;5.13;100.00
75460;BME280;64039;53.060;9.342;2023-01-09T07:26:03;99241.41;;;5.07;100.00
75460;BME280;64039;53.060;9.342;2023-01-09T07:28:29;99253.56;;;5.14;100.00
75460;BME280;64039;53.060;9.342;2023-01-09T07:30:54;99252.47;;;5.01;100.00
75460;BME280;64039;53.060;9.342;2023-01-09T07:33:20;99262.06;;;5.08;100.00
75460;BME280;64039;53.060;9.342;2023-01-09T07:35:45;99263.72;;;5.04;100.00
75460;BME280;64039;53.060;9.342;2023-01-09T07:38:11;99260.03;;;4.92;100.00
75460;BME280;64039;53.060;9.342;2023-01-09T07:40:36;99268.69;;;4.94;100.00
75460;BME280;64039;53.060;9.342;2023-01-09T07:43:02;99273.75;;;4.91;100.00
75460;BME280;64039;53.060;9.342;2023-01-09T07:45:28;99279.84;;;4.94;100.00
75460;BME280;64039;53.060;9.342;2023-01-09T07:47:56;99275.22;;;4.76;100.00
75460;BME280;64039;53.060;9.342;2023-01-09T07:50:22;99283.78;;;4.75;100.00
75460;BME280;64039;53.060;9.342;2023-01-09T07:52:47;99290.78;;;4.82;100.00
75460;BME280;64039;53.060;9.342;2023-01-09T07:55:12;99283.97;;;4.84;100.00
75460;BME280;64039;53.060;9.342;2023-01-09T07:57:38;99293.31;;;4.79;100.00
75460;BME280;64039;53.060;9.342;2023-01-09T08:00:05;99286.34;;;4.74;100.00
75460;BME280;64039;53.060;9.342;2023-01-09T08:02:32;99301.75;;;4.72;100.00
75460;BME280;64039;53.060;9.342;2023-01-09T08:04:57;99303.50;;;4.73;100.00
75460;BME280;64039;53.060;9.342;2023-01-09T08:07:23;99313.59;;;4.62;100.00
75460;BME280;64039;53.060;9.342;2023-01-09T08:09:48;99305.03;;;4.65;100.00
75460;BME280;64039;53.060;9.342;2023-01-09T08:12:14;99301.72;;;4.70;100.00
75460;BME280;64039;53.060;9.342;2023-01-09T08:14:39;99308.50;;;4.65;100.00
75460;BME280;64039;53.060;9.342;2023-01-09T08:17:05;99311.97;;;4.67;100.00
75460;BME280;64039;53.060;9.342;2023-01-09T08:19:30;99317.00;;;4.61;100.00
75460;BME280;64039;53.060;9.342;2023-01-09T08:21:56;99322.19;;;4.63;100.00
75460;BME280;64039;53.060;9.342;2023-01-09T08:24:21;99331.66;;;4.64;100.00
75460;BME280;64039;53.060;9.342;2023-01-09T08:26:47;99329.28;;;4.73;100.00
75460;BME280;64039;53.060;9.342;2023-01-09T08:29:12;99336.19;;;4.76;100.00
75460;BME280;64039;53.060;9.342;2023-01-09T08:31:38;99339.78;;;4.84;100.00
75460;BME280;64039;53.060;9.342;2023-01-09T08:34:03;99334.97;;;4.99;100.00
75460;BME280;64039;53.060;9.342;2023-01-09T08:36:28;99350.19;;;4.87;100.00
75460;BME280;64039;53.060;9.342;2023-01-09T08:38:54;99351.41;;;5.04;100.00
75460;BME280;64039;53.060;9.342;2023-01-09T08:41:19;99341.94;;;5.05;100.00
75460;BME280;64039;53.060;9.342;2023-01-09T08:44:03;99344.47;;;5.02;100.00
75460;BME280;64039;53.060;9.342;2023-01-09T08:46:47;99344.31;;;4.94;100.00
75460;BME280;64039;53.060;9.342;2023-01-09T08:49:32;99345.97;;;4.92;100.00
75460;BME280;64039;53.060;9.342;2023-01-09T08:51:58;99343.56;;;4.98;100.00
75460;BME280;64039;53.060;9.342;2023-01-09T08:54:23;99351.13;;;4.92;100.00
75460;BME280;64039;53.060;9.342;2023-01-09T08:56:49;99356.47;;;5.01;100.00
75460;BME280;64039;53.060;9.342;2023-01-09T08:59:15;99351.84;;;4.85;100.00
75460;BME280;64039;53.060;9.342;2023-01-09T09:01:40;99358.94;;;4.94;100.00
75460;BME280;64039;53.060;9.342;2023-01-09T09:04:06;99352.03;;;4.94;100.00
75460;BME280;64039;53.060;9.342;2023-01-09T09:06:32;99358.22;;;5.02;100.00
75460;BME280;64039;53.060;9.342;2023-01-09T09:08:58;99359.88;;;4.99;100.00
75460;BME280;64039;53.060;9.342;2023-01-09T09:11:28;99357.31;;;4.99;100.00
75460;BME280;64039;53.060;9.342;2023-01-09T09:13:54;99350.66;;;5.10;100.00
75460;BME280;64039;53.060;9.342;2023-01-09T09:16:20;99352.94;;;4.96;100.00
75460;BME280;64039;53.060;9.342;2023-01-09T09:18:45;99357.38;;;5.02;100.00
75460;BME280;64039;53.060;9.342;2023-01-09T09:21:11;99359.16;;;5.06;100.00
75460;BME280;64039;53.060;9.342;2023-01-09T09:23:36;99356.56;;;5.04;100.00
75460;BME280;64039;53.060;9.342;2023-01-09T09:26:02;99358.50;;;5.16;100.00
75460;BME280;64039;53.060;9.342;2023-01-09T09:28:27;99362.00;;;5.18;100.00
75460;BME280;64039;53.060;9.342;2023-01-09T09:30:53;99357.00;;;5.28;100.00
75460;BME280;64039;53.060;9.342;2023-01-09T09:33:18;99358.78;;;5.30;100.00
75460;BME280;64039;53.060;9.342;2023-01-09T09:35:43;99368.09;;;5.22;100.00
75460;BME280;64039;53.060;9.342;2023-01-09T09:38:09;99361.38;;;5.32;100.00
75460;BME280;64039;53.060;9.342;2023-01-09T09:49:20;99358.16;;;5.44;100.00
75460;BME280;64039;53.060;9.342;2023-01-09T09:54:38;99363.63;;;5.61;100.00
75460;BME280;64039;53.060;9.342;2023-01-09T09:57:13;99369.75;;;5.67;100.00
75460;BME280;64039;53.060;9.342;2023-01-09T09:59:41;99372.41;;;5.71;100.00
75460;BME280;64039;53.060;9.342;2023-01-09T10:04:33;99378.75;;;5.90;100.00
75460;BME280;64039;53.060;9.342;2023-01-09T10:07:06;99376.41;;;6.02;100.00
75460;BME280;64039;53.060;9.342;2023-01-09T10:09:56;99375.72;;;6.12;100.00
75460;BME280;64039;53.060;9.342;2023-01-09T10:12:36;99374.13;;;6.21;100.00
75460;BME280;64039;53.060;9.342;2023-01-09T10:26:51;99369.19;;;6.38;100.00
75460;BME280;64039;53.060;9.342;2023-01-09T10:29:32;99367.59;;;6.46;100.00
75460;BME280;64039;53.060;9.342;2023-01-09T10:37:41;99366.19;;;6.70;100.00
75460;BME280;64039;53.060;9.342;2023-01-09T10:40:21;99374.72;;;6.61;100.00
75460;BME280;64039;53.060;9.342;2023-01-09T10:42:52;99374.72;;;6.63;100.00
75460;BME280;64039;53.060;9.342;2023-01-09T10:45:28;99376.53;;;6.68;100.00
75460;BME280;64039;53.060;9.342;2023-01-09T10:48:02;99382.50;;;6.64;100.00
75460;BME280;64039;53.060;9.342;2023-01-09T10:50:33;99372.84;;;6.51;100.00
75460;BME280;64039;53.060;9.342;2023-01-09T10:53:06;99375.56;;;6.61;100.00
75460;BME280;64039;53.060;9.342;2023-01-09T10:55:41;99379.84;;;6.59;100.00
75460;BME280;64039;53.060;9.342;2023-01-09T10:58:20;99379.06;;;6.64;100.00
75460;BME280;64039;53.060;9.342;2023-01-09T11:00:48;99373.91;;;6.65;100.00
75460;BME280;64039;53.060;9.342;2023-01-09T11:03:19;99370.44;;;6.65;100.00
75460;BME280;64039;53.060;9.342;2023-01-09T11:05:53;99374.72;;;6.61;100.00
75460;BME280;64039;53.060;9.342;2023-01-09T11:08:38;99373.97;;;6.70;100.00
75460;BME280;64039;53.060;9.342;2023-01-09T11:11:06;99369.75;;;6.78;100.00
75460;BME280;64039;53.060;9.342;2023-01-09T11:13:33;99366.19;;;6.70;100.00
75460;BME280;64039;53.060;9.342;2023-01-09T11:18:36;99367.88;;;6.66;100.00
75460;BME280;64039;53.060;9.342;2023-01-09T11:21:14;99371.56;;;6.85;100.00
75460;BME280;64039;53.060;9.342;2023-01-09T11:23:49;99369.16;;;6.98;100.00
75460;BME280;64039;53.060;9.342;2023-01-09T11:26:23;99361.50;;;7.07;100.00
75460;BME280;64039;53.060;9.342;2023-01-09T11:29:15;99359.72;;;7.01;100.00
75460;BME280;64039;53.060;9.342;2023-01-09T11:31:42;99362.38;;;7.07;100.00
75460;BME280;64039;53.060;9.342;2023-01-09T11:34:17;99358.97;;;7.13;100.00
75460;BME280;64039;53.060;9.342;2023-01-09T11:36:44;99363.31;;;7.14;100.00
75460;BME280;64039;53.060;9.342;2023-01-09T11:39:27;99351.09;;;7.04;100.00
75460;BME280;64039;53.060;9.342;2023-01-09T11:41:56;99360.66;;;7.08;100.00
75460;BME280;64039;53.060;9.342;2023-01-09T11:44:24;99354.66;;;7.09;100.00
75460;BME280;64039;53.060;9.342;2023-01-09T11:46:50;99351.13;;;7.05;100.00
75460;BME280;64039;53.060;9.342;2023-01-09T11:51:44;99358.22;;;7.22;100.00
75460;BME280;64039;53.060;9.342;2023-01-09T11:54:27;99356.50;;;7.24;100.00
75460;BME280;64039;53.060;9.342;2023-01-09T11:56:54;99360.78;;;7.17;100.00
75460;BME280;64039;53.060;9.342;2023-01-09T11:59:24;99362.41;;;7.11;100.00
75460;BME280;64039;53.060;9.342;2023-01-09T12:15:37;99357.78;;;6.86;100.00
75460;BME280;64039;53.060;9.342;2023-01-09T12:53:32;99345.75;;;6.90;100.00
75460;BME280;64039;53.060;9.342;2023-01-09T12:56:23;99351.72;;;6.84;100.00
75460;BME280;64039;53.060;9.342;2023-01-09T12:58:57;99354.34;;;6.86;100.00
75460;BME280;64039;53.060;9.342;2023-01-09T13:01:29;99356.16;;;6.93;100.00
75460;BME280;64039;53.060;9.342;2023-01-09T13:06:27;99362.72;;;6.66;100.00
75460;BME280;64039;53.060;9.342;2023-01-09T13:12:02;99373.59;;;6.43;100.00
75460;BME280;64039;53.060;9.342;2023-01-09T13:17:02;99363.19;;;6.39;100.00
75460;BME280;64039;53.060;9.342;2023-01-09T13:19:36;99371.69;;;6.32;100.00
75460;BME280;64039;53.060;9.342;2023-01-09T13:22:05;99367.47;;;6.37;100.00
75460;BME280;64039;53.060;9.342;2023-01-09T13:27:23;99365.72;;;6.34;100.00
75460;BME280;64039;53.060;9.342;2023-01-09T13:29:59;99366.84;;;6.53;100.00
75460;BME280;64039;53.060;9.342;2023-01-09T13:34:58;99374.72;;;6.61;100.00
75460;BME280;64039;53.060;9.342;2023-01-09T13:37:33;99372.00;;;6.53;100.00
75460;BME280;64039;53.060;9.342;2023-01-09T13:40:05;99373.69;;;6.51;100.00
75460;BME280;64039;53.060;9.342;2023-01-09T13:42:31;99384.66;;;6.35;100.00
75460;BME280;64039;53.060;9.342;2023-01-09T13:45:20;99384.78;;;6.42;100.00
75460;BME280;64039;53.060;9.342;2023-01-09T13:50:47;99382.47;;;6.61;100.00
75460;BME280;64039;53.060;9.342;2023-01-09T14:06:36;99387.41;;;6.45;100.00
75460;BME280;64039;53.060;9.342;2023-01-09T14:09:21;99399.69;;;6.60;100.00
75460;BME280;64039;53.060;9.342;2023-01-09T14:11:48;99394.28;;;6.45;100.00
75460;BME280;64039;53.060;9.342;2023-01-09T14:14:30;99399.53;;;6.51;100.00
75460;BME280;64039;53.060;9.342;2023-01-09T14:16:58;99401.19;;;6.46;100.00
75460;BME280;64039;53.060;9.342;2023-01-09T14:19:31;99411.63;;;6.51;100.00
75460;BME280;64039;53.060;9.342;2023-01-09T14:21:59;99414.97;;;6.47;100.00
75460;BME280;64039;53.060;9.342;2023-01-09T14:24:31;99416.69;;;6.44;100.00
75460;BME280;64039;53.060;9.342;2023-01-09T14:26:58;99418.31;;;6.38;100.00
75460;BME280;64039;53.060;9.342;2023-01-09T14:29:39;99421.03;;;6.45;100.00
75460;BME280;64039;53.060;9.342;2023-01-09T14:37:36;99435.91;;;6.08;100.00
75460;BME280;64039;53.060;9.342;2023-01-09T14:40:04;99437.69;;;6.11;100.00
75460;BME280;64039;53.060;9.342;2023-01-09T14:42:33;99442.00;;;6.10;100.00
75460;BME280;64039;53.060;9.342;2023-01-09T14:45:21;99441.34;;;6.25;100.00
75460;BME280;64039;53.060;9.342;2023-01-09T14:48:10;99448.22;;;6.23;100.00
75460;BME280;64039;53.060;9.342;2023-01-09T14:50:50;99458.69;;;6.31;100.00
75460;BME280;64039;53.060;9.342;2023-01-09T14:53:25;99460.31;;;6.24;100.00
75460;BME280;64039;53.060;9.342;2023-01-09T14:55:59;99452.28;;;6.09;100.00
75460;BME280;64039;53.060;9.342;2023-01-09T14:58:29;99465.50;;;6.27;100.00
75460;BME280;64039;53.060;9.342;2023-01-09T15:03:48;99472.22;;;6.16;100.00
75460;BME280;64039;53.060;9.342;2023-01-09T15:06:20;99487.09;;;6.31;100.00
75460;BME280;64039;53.060;9.342;2023-01-09T15:08:55;99486.09;;;6.21;100.00
75460;BME280;64039;53.060;9.342;2023-01-09T15:11:21;99497.16;;;6.12;100.00
75460;BME280;64039;53.060;9.342;2023-01-09T15:13:48;99495.53;;;6.19;100.00
75460;BME280;64039;53.060;9.342;2023-01-09T15:16:18;99506.09;;;6.33;100.00
75460;BME280;64039;53.060;9.342;2023-01-09T15:18:47;99507.88;;;6.36;100.00
75460;BME280;64039;53.060;9.342;2023-01-09T15:21:20;99512.88;;;6.26;100.00
75460;BME280;64039;53.060;9.342;2023-01-09T15:23:47;99506.81;;;6.24;100.00
75460;BME280;64039;53.060;9.342;2023-01-09T15:26:29;99513.78;;;6.30;100.00
75460;BME280;64039;53.060;9.342;2023-01-09T15:29:15;99516.28;;;6.24;100.00
75460;BME280;64039;53.060;9.342;2023-01-09T15:31:43;99516.25;;;6.22;100.00
75460;BME280;64039;53.060;9.342;2023-01-09T15:34:17;99520.41;;;6.14;100.00
75460;BME280;64039;53.060;9.342;2023-01-09T15:36:44;99530.00;;;6.21;100.00
75460;BME280;64039;53.060;9.342;2023-01-09T15:39:16;99531.44;;;6.05;100.00
75460;BME280;64039;53.060;9.342;2023-01-09T15:41:45;99532.75;;;6.29;100.00
75460;BME280;64039;53.060;9.342;2023-01-09T15:44:30;99530.00;;;6.21;100.00